createdAt,value
2018-10-16T00:00:33.784Z,97.63
2018-10-16T00:03:38.336Z,98.40
2018-10-16T00:06:42.905Z,98.36
2018-10-16T00:09:47.563Z,98.07
2018-10-16T00:12:52.145Z,97.85
2018-10-16T00:15:56.717Z,97.32
2018-10-16T00:19:01.284Z,97.41
2018-10-16T00:22:05.903Z,98.08
2018-10-16T00:25:15.748Z,98.03
2018-10-16T00:28:20.302Z,98.02
2018-10-16T00:31:24.808Z,97.89
2018-10-16T00:34:29.356Z,97.66
2018-10-16T00:37:33.923Z,98.20
2018-10-16T00:40:38.485Z,98.29
2018-10-16T00:43:43.021Z,98.47
2018-10-16T00:46:47.622Z,98.57
2018-10-16T00:49:52.370Z,98.48
2018-10-16T00:52:56.973Z,98.62
2018-10-16T00:56:01.586Z,98.63
2018-10-16T00:59:06.309Z,98.94
2018-10-16T01:02:11.496Z,98.59
2018-10-16T01:05:16.095Z,98.39
2018-10-16T01:08:20.803Z,99.12
2018-10-16T01:11:25.700Z,98.55
2018-10-16T01:14:30.381Z,97.77
2018-10-16T01:17:34.941Z,98.55
2018-10-16T01:20:39.603Z,98.83
2018-10-16T01:23:44.196Z,98.33
2018-10-16T01:26:48.780Z,98.36
2018-10-16T01:29:53.522Z,98.14
2018-10-16T01:32:58.242Z,98.57
2018-10-16T01:36:02.851Z,98.27
2018-10-16T01:39:07.913Z,98.28
2018-10-16T01:42:12.467Z,98.75
2018-10-16T01:45:17.002Z,98.08
2018-10-16T01:48:21.794Z,98.07
2018-10-16T01:51:26.491Z,98.73
2018-10-16T01:54:31.113Z,97.95
2018-10-16T01:57:35.753Z,98.08
2018-10-16T02:00:40.448Z,97.85
2018-10-16T02:03:45.022Z,98.26
2018-10-16T02:06:49.694Z,97.99
2018-10-16T02:09:54.293Z,98.83
2018-10-16T02:12:59.062Z,98.98
2018-10-16T02:16:03.666Z,98.60
2018-10-16T02:19:08.290Z,99.27
2018-10-16T02:22:12.984Z,98.87
2018-10-16T02:25:17.540Z,98.83
2018-10-16T02:28:22.191Z,98.08
2018-10-16T02:31:27.128Z,97.84
2018-10-16T02:34:31.720Z,98.19
2018-10-16T02:37:36.512Z,98.86
2018-10-16T02:40:41.041Z,98.70
2018-10-16T02:43:45.665Z,98.50
2018-10-16T02:46:50.280Z,98.52
2018-10-16T02:49:54.912Z,98.58
2018-10-16T02:52:59.556Z,98.64
2018-10-16T02:56:04.225Z,98.92
2018-10-16T02:59:08.805Z,98.66
2018-10-16T03:02:13.479Z,98.62
2018-10-16T03:05:18.052Z,98.53
2018-10-16T03:08:22.613Z,98.56
2018-10-16T03:11:27.174Z,98.60
2018-10-16T03:14:31.953Z,98.79
2018-10-16T03:17:36.523Z,98.85
2018-10-16T03:20:41.305Z,99.00
2018-10-16T03:23:46.014Z,98.94
2018-10-16T03:26:50.566Z,98.90
2018-10-16T03:29:55.183Z,99.09
2018-10-16T03:33:00.380Z,98.95
2018-10-16T03:36:05.300Z,98.32
2018-10-16T03:39:11.863Z,98.90
2018-10-16T03:42:16.481Z,98.24
2018-10-16T03:45:21.176Z,98.37
2018-10-16T03:48:25.827Z,98.70
2018-10-16T03:51:30.409Z,98.97
2018-10-16T03:54:34.951Z,99.30
2018-10-16T03:57:39.515Z,98.61
2018-10-16T04:00:44.097Z,99.02
2018-10-16T04:03:49.052Z,99.42
2018-10-16T04:06:53.776Z,98.91
2018-10-16T04:09:58.405Z,98.54
2018-10-16T04:13:03.361Z,98.17
2018-10-16T04:16:08.401Z,99.30
2018-10-16T04:19:13.427Z,99.11
2018-10-16T04:22:18.222Z,98.80
2018-10-16T04:25:22.677Z,98.56
2018-10-16T04:28:27.324Z,98.63
2018-10-16T04:31:31.978Z,99.12
2018-10-16T04:34:36.646Z,98.96
2018-10-16T04:37:41.560Z,98.53
2018-10-16T04:40:46.175Z,99.02
2018-10-16T04:43:50.831Z,98.85
2018-10-16T04:46:55.355Z,98.44
2018-10-16T04:49:59.912Z,98.66
2018-10-16T04:53:05.049Z,98.60
2018-10-16T04:56:09.795Z,99.07
2018-10-16T04:59:14.474Z,99.00
2018-10-16T05:02:19.258Z,98.85
2018-10-16T05:05:24.828Z,98.81
2018-10-16T05:08:29.415Z,98.65
2018-10-16T05:11:34.791Z,98.71
2018-10-16T05:14:40.052Z,98.88
2018-10-16T05:17:44.672Z,98.86
2018-10-16T05:20:49.342Z,99.07
2018-10-16T05:23:55.056Z,98.95
2018-10-16T05:26:59.634Z,98.71
2018-10-16T05:30:04.334Z,98.58
2018-10-16T05:33:08.942Z,97.92
2018-10-16T05:36:13.591Z,98.18
2018-10-16T05:39:18.692Z,98.33
2018-10-16T05:42:23.324Z,98.38
2018-10-16T05:45:29.453Z,98.82
2018-10-16T05:48:34.023Z,99.17
2018-10-16T05:51:43.741Z,98.88
2018-10-16T05:54:48.400Z,98.98
2018-10-16T05:57:53.204Z,98.82
2018-10-16T06:00:57.790Z,99.06
2018-10-16T06:04:02.493Z,98.84
2018-10-16T06:07:07.206Z,99.21
2018-10-16T06:10:11.852Z,98.45
2018-10-16T06:13:16.503Z,98.46
2018-10-16T06:16:21.072Z,97.96
2018-10-16T06:19:25.717Z,97.56
2018-10-16T06:22:30.301Z,97.57
2018-10-16T06:25:34.858Z,96.90
2018-10-16T06:28:39.683Z,96.44
2018-10-16T06:31:44.265Z,95.56
2018-10-16T06:34:49.113Z,94.35
2018-10-16T06:37:53.729Z,94.65
2018-10-16T06:40:58.610Z,94.17
2018-10-16T06:44:03.204Z,94.17
2018-10-16T06:47:08.077Z,93.34
2018-10-16T06:50:12.799Z,93.86
2018-10-16T06:53:17.405Z,93.34
2018-10-16T06:56:22.049Z,91.94
2018-10-16T06:59:27.177Z,90.49
2018-10-16T07:02:31.780Z,89.99
2018-10-16T07:05:36.432Z,89.86
2018-10-16T07:08:41.027Z,89.12
2018-10-16T07:11:45.725Z,88.21
2018-10-16T07:14:50.517Z,87.71
2018-10-16T07:17:55.173Z,87.28
2018-10-16T07:21:00.003Z,86.17
2018-10-16T07:24:05.097Z,85.86
2018-10-16T07:27:09.765Z,85.13
2018-10-16T07:30:16.206Z,85.03
2018-10-16T07:33:20.700Z,83.85
2018-10-16T07:36:25.576Z,83.32
2018-10-16T07:39:30.206Z,82.95
2018-10-16T07:42:34.905Z,82.67
2018-10-16T07:45:39.595Z,81.96
2018-10-16T07:48:44.262Z,81.92
2018-10-16T07:51:48.850Z,81.90
2018-10-16T07:54:53.448Z,81.97
2018-10-16T07:57:58.050Z,81.47
2018-10-16T08:01:02.939Z,81.72
2018-10-16T08:04:08.038Z,81.67
2018-10-16T08:07:12.663Z,80.01
2018-10-16T08:10:17.381Z,79.73
2018-10-16T08:13:22.058Z,77.76
2018-10-16T08:16:26.647Z,78.34
2018-10-16T08:19:31.293Z,76.17
2018-10-16T08:22:35.941Z,76.18
2018-10-16T08:25:40.539Z,74.97
2018-10-16T08:28:45.214Z,74.09
2018-10-16T08:31:49.928Z,73.32
2018-10-16T08:34:54.537Z,74.23
2018-10-16T08:40:10.013Z,73.85
2018-10-16T08:43:39.153Z,73.12
2018-10-16T08:47:00.409Z,71.99
2018-10-16T08:50:22.799Z,71.94
2018-10-16T08:53:27.530Z,72.43
2018-10-16T08:56:32.497Z,70.87
2018-10-16T08:59:37.266Z,71.66
2018-10-16T09:02:41.860Z,70.57
2018-10-16T09:05:46.599Z,69.24
2018-10-16T09:08:51.548Z,68.94
2018-10-16T09:11:56.276Z,68.17
2018-10-16T09:15:00.940Z,67.18
2018-10-16T09:18:05.561Z,66.49
2018-10-16T09:21:10.248Z,67.12
2018-10-16T09:24:14.943Z,65.70
2018-10-16T09:27:19.601Z,64.86
2018-10-16T09:30:24.228Z,65.86
2018-10-16T09:33:28.856Z,65.07
2018-10-16T09:36:33.616Z,65.68
2018-10-16T09:39:38.434Z,64.02
2018-10-16T09:42:42.995Z,63.18
2018-10-16T09:45:47.703Z,62.41
2018-10-16T09:48:52.322Z,61.79
2018-10-16T09:51:56.979Z,61.47
2018-10-16T09:55:01.666Z,60.31
2018-10-16T09:58:06.449Z,60.04
2018-10-16T10:01:16.149Z,59.45
2018-10-16T10:04:20.684Z,58.96
2018-10-16T10:07:25.253Z,58.56
2018-10-16T10:10:29.945Z,59.01
2018-10-16T10:13:34.499Z,58.10
2018-10-16T10:16:39.436Z,57.73
2018-10-16T10:19:44.060Z,57.64
2018-10-16T10:22:48.940Z,56.08
2018-10-16T10:25:53.541Z,56.15
2018-10-16T10:28:58.690Z,56.96
2018-10-16T10:32:03.362Z,55.40
2018-10-16T10:35:10.268Z,55.95
2018-10-16T10:38:14.907Z,56.10
2018-10-16T10:41:19.448Z,55.38
2018-10-16T10:44:24.089Z,54.55
2018-10-16T10:47:28.690Z,53.23
2018-10-16T10:50:33.519Z,53.57
2018-10-16T10:53:37.998Z,53.50
2018-10-16T10:56:42.669Z,53.98
2018-10-16T10:59:47.191Z,52.76
2018-10-16T11:02:51.821Z,51.68
2018-10-16T11:05:56.411Z,52.06
2018-10-16T11:09:01.343Z,53.35
2018-10-16T11:12:06.152Z,52.27
2018-10-16T11:15:10.805Z,51.74
2018-10-16T11:18:15.395Z,50.66
2018-10-16T11:21:19.945Z,51.55
2018-10-16T11:24:24.654Z,50.76
2018-10-16T11:27:29.289Z,50.22
2018-10-16T11:30:33.853Z,49.35
2018-10-16T11:33:38.631Z,48.94
2018-10-16T11:36:43.193Z,48.63
2018-10-16T11:39:47.817Z,48.43
2018-10-16T11:42:52.568Z,47.41
2018-10-16T11:45:57.138Z,47.73
2018-10-16T11:49:01.746Z,47.48
2018-10-16T11:52:07.044Z,47.90
2018-10-16T11:55:11.809Z,46.95
2018-10-16T11:58:16.398Z,45.98
2018-10-16T12:01:21.544Z,45.36
2018-10-16T12:04:26.501Z,44.79
2018-10-16T12:07:31.101Z,44.16
2018-10-16T12:10:35.807Z,42.69
2018-10-16T12:13:40.350Z,43.15
2018-10-16T12:17:05.383Z,42.61
2018-10-16T12:20:16.725Z,41.15
2018-10-16T12:23:21.339Z,40.19
2018-10-16T12:26:26.000Z,40.63
2018-10-16T12:29:30.616Z,39.86
2018-10-16T12:32:35.263Z,40.11
2018-10-16T12:35:39.786Z,38.71
2018-10-16T12:38:44.486Z,37.74
2018-10-16T12:41:49.273Z,36.21
2018-10-16T12:44:53.728Z,37.21
2018-10-16T12:47:58.314Z,35.85
2018-10-16T12:51:02.939Z,36.55
2018-10-16T12:54:07.796Z,37.27
2018-10-16T12:57:12.522Z,37.92
2018-10-16T13:00:17.196Z,38.57
2018-10-16T13:03:21.814Z,38.05
2018-10-16T13:06:26.443Z,38.66
2018-10-16T13:09:31.147Z,38.71
2018-10-16T13:12:36.025Z,38.80
2018-10-16T13:15:40.571Z,38.84
2018-10-16T13:18:45.256Z,38.58
2018-10-16T13:21:49.859Z,37.18
2018-10-16T13:24:54.503Z,36.98
2018-10-16T13:27:59.553Z,36.97
2018-10-16T13:31:04.153Z,37.98
2018-10-16T13:34:08.836Z,37.71
2018-10-16T13:37:13.380Z,37.05
2018-10-16T13:40:18.294Z,37.93
2018-10-16T13:43:22.875Z,36.67
2018-10-16T13:46:27.841Z,38.49
2018-10-16T13:49:32.455Z,38.88
2018-10-16T13:52:37.081Z,39.98
2018-10-16T13:55:41.713Z,39.07
2018-10-16T13:58:46.340Z,40.01
2018-10-16T14:01:50.923Z,39.73
2018-10-16T14:04:55.634Z,40.39
2018-10-16T14:08:00.270Z,39.66
2018-10-16T14:11:05.026Z,40.04
2018-10-16T14:14:09.759Z,39.98
2018-10-16T14:17:14.422Z,41.32
2018-10-16T14:20:19.105Z,41.44
2018-10-16T14:23:23.719Z,41.85
2018-10-16T14:26:28.381Z,42.13
2018-10-16T14:29:33.182Z,41.19
2018-10-16T14:32:37.756Z,41.52
2018-10-16T14:35:42.480Z,42.06
2018-10-16T14:38:47.093Z,42.05
2018-10-16T14:41:51.784Z,42.66
2018-10-16T14:44:56.487Z,41.85
2018-10-16T14:48:01.081Z,42.57
2018-10-16T14:51:05.849Z,42.32
2018-10-16T14:54:10.568Z,42.59
2018-10-16T14:57:15.143Z,42.94
2018-10-16T15:00:19.908Z,43.80
2018-10-16T15:03:24.474Z,43.81
2018-10-16T15:06:29.152Z,43.77
2018-10-16T15:09:33.686Z,44.92
2018-10-16T15:12:38.290Z,44.47
2018-10-16T15:15:43.449Z,45.94
2018-10-16T15:18:48.113Z,44.61
2018-10-16T15:21:52.910Z,45.79
2018-10-16T15:24:57.476Z,45.28
2018-10-16T15:28:02.313Z,45.42
2018-10-16T15:31:06.952Z,45.84
2018-10-16T15:34:11.602Z,45.21
2018-10-16T15:37:16.910Z,45.26
2018-10-16T15:40:21.573Z,45.03
2018-10-16T15:43:26.390Z,45.56
2018-10-16T15:46:30.996Z,46.31
2018-10-16T15:49:35.921Z,48.07
2018-10-16T15:52:40.873Z,49.90
2018-10-16T15:55:45.530Z,52.16
2018-10-16T15:58:50.124Z,54.08
2018-10-16T16:01:54.892Z,54.52
2018-10-16T16:04:59.512Z,52.98
2018-10-16T16:08:04.470Z,55.09
2018-10-16T16:11:09.088Z,53.63
2018-10-16T16:14:13.925Z,53.82
2018-10-16T16:17:18.375Z,55.85
2018-10-16T16:20:23.069Z,59.15
2018-10-16T16:23:27.700Z,59.88
2018-10-16T16:26:32.517Z,58.58
2018-10-16T16:29:37.651Z,57.40
2018-10-16T16:32:42.308Z,58.95
2018-10-16T16:35:47.051Z,56.71
2018-10-16T16:38:51.592Z,58.18
2018-10-16T16:41:56.329Z,59.44
2018-10-16T16:45:00.988Z,61.98
2018-10-16T16:48:05.637Z,63.38
2018-10-16T16:51:10.448Z,63.44
2018-10-16T16:54:15.103Z,64.04
2018-10-16T16:57:19.734Z,65.05
2018-10-16T17:00:24.320Z,65.24
2018-10-16T17:03:29.058Z,65.76
2018-10-16T17:06:33.677Z,67.63
2018-10-16T17:09:38.280Z,67.84
2018-10-16T17:12:42.944Z,68.30
2018-10-16T17:15:47.585Z,66.81
2018-10-16T17:18:53.845Z,66.70
2018-10-16T17:21:58.481Z,68.02
2018-10-16T17:25:03.437Z,68.92
2018-10-16T17:28:07.999Z,69.87
2018-10-16T17:31:12.820Z,70.36
2018-10-16T17:34:17.985Z,70.52
2018-10-16T17:37:22.610Z,71.72
2018-10-16T17:40:27.230Z,71.51
2018-10-16T17:43:31.879Z,70.74
2018-10-16T17:46:36.698Z,71.78
2018-10-16T17:49:41.353Z,72.33
2018-10-16T17:52:46.102Z,72.27
2018-10-16T17:55:50.803Z,74.02
2018-10-16T17:58:55.461Z,74.00
2018-10-16T18:02:00.180Z,75.31
2018-10-16T18:05:04.961Z,75.43
2018-10-16T18:08:09.654Z,75.51
2018-10-16T18:11:14.322Z,74.24
2018-10-16T18:14:19.215Z,75.24
2018-10-16T18:17:24.036Z,75.07
2018-10-16T18:20:28.832Z,75.67
2018-10-16T18:23:33.711Z,76.79
2018-10-16T18:26:38.598Z,77.12
2018-10-16T18:29:44.302Z,78.19
2018-10-16T18:32:48.997Z,78.91
2018-10-16T18:35:53.681Z,77.56
2018-10-16T18:38:58.401Z,77.20
2018-10-16T18:42:03.067Z,77.88
2018-10-16T18:45:09.377Z,77.80
2018-10-16T18:48:14.029Z,77.52
2018-10-16T18:51:18.725Z,78.00
2018-10-16T18:54:23.831Z,78.52
2018-10-16T18:57:28.595Z,79.52
2018-10-16T19:00:33.342Z,79.41
2018-10-16T19:03:38.037Z,79.79
2018-10-16T19:06:42.914Z,80.46
2018-10-16T19:09:47.592Z,80.63
2018-10-16T19:12:52.239Z,79.96
2018-10-16T19:15:57.016Z,81.00
2018-10-16T19:19:01.712Z,81.87
2018-10-16T19:22:06.604Z,82.47
2018-10-16T19:25:12.170Z,82.75
2018-10-16T19:28:17.137Z,83.96
2018-10-16T19:31:21.810Z,83.78
2018-10-16T19:34:26.564Z,83.21
2018-10-16T19:37:31.347Z,83.16
2018-10-16T19:40:35.966Z,84.19
2018-10-16T19:43:40.639Z,84.07
2018-10-16T19:46:45.230Z,84.23
2018-10-16T19:49:49.913Z,84.48
2018-10-16T19:52:54.682Z,84.66
2018-10-16T19:55:59.356Z,85.79
2018-10-16T19:59:04.000Z,85.59
2018-10-16T20:02:09.405Z,86.41
2018-10-16T20:05:14.131Z,86.20
2018-10-16T20:08:18.710Z,86.58
2018-10-16T20:11:23.383Z,87.12
2018-10-16T20:14:28.091Z,87.33
2018-10-16T20:17:32.819Z,87.75
2018-10-16T20:20:37.466Z,87.08
2018-10-16T20:23:42.155Z,88.14
2018-10-16T20:26:46.698Z,88.18
2018-10-16T20:29:51.683Z,88.54
2018-10-16T20:32:56.348Z,87.19
2018-10-16T20:36:01.004Z,87.77
2018-10-16T20:39:10.917Z,88.48
2018-10-16T20:42:15.625Z,88.52
2018-10-16T20:45:20.394Z,88.53
2018-10-16T20:48:24.995Z,88.49
2018-10-16T20:51:29.557Z,88.08
2018-10-16T20:54:34.185Z,88.09
2018-10-16T20:57:38.967Z,88.08
2018-10-16T21:00:43.942Z,89.13
2018-10-16T21:03:53.122Z,89.30
2018-10-16T21:06:57.956Z,89.67
2018-10-16T21:10:02.937Z,89.58
2018-10-16T21:13:07.683Z,89.54
2018-10-16T21:16:12.325Z,89.33
2018-10-16T21:19:16.955Z,90.14
2018-10-16T21:22:21.608Z,89.65
2018-10-16T21:25:26.292Z,89.82
2018-10-16T21:28:31.017Z,90.64
2018-10-16T21:31:35.717Z,90.46
2018-10-16T21:34:40.313Z,91.17
2018-10-16T21:37:45.167Z,91.46
2018-10-16T21:40:49.829Z,91.83
2018-10-16T21:43:54.486Z,92.74
2018-10-16T21:46:59.212Z,92.13
2018-10-16T21:50:03.862Z,91.96
2018-10-16T21:53:08.616Z,92.34
2018-10-16T21:56:13.208Z,93.01
2018-10-16T21:59:18.216Z,92.78
2018-10-16T22:02:28.049Z,92.94
2018-10-16T22:05:32.677Z,93.20
2018-10-16T22:08:37.350Z,93.86
2018-10-16T22:11:41.951Z,93.74
2018-10-16T22:14:46.606Z,94.18
2018-10-16T22:17:51.486Z,94.73
2018-10-16T22:20:56.073Z,94.64
2018-10-16T22:24:00.872Z,94.07
2018-10-16T22:27:05.844Z,94.84
2018-10-16T22:30:10.976Z,94.63
2018-10-16T22:33:15.577Z,94.37
2018-10-16T22:36:20.308Z,94.39
2018-10-16T22:39:24.986Z,94.67
2018-10-16T22:42:29.859Z,94.54
2018-10-16T22:45:34.432Z,95.10
2018-10-16T22:48:39.285Z,95.70
2018-10-16T22:51:44.059Z,95.46
2018-10-16T22:54:48.804Z,95.35
2018-10-16T22:57:53.449Z,95.39
2018-10-16T23:00:58.333Z,96.19
2018-10-16T23:04:02.984Z,95.91
2018-10-16T23:07:07.758Z,95.95
2018-10-16T23:10:12.579Z,96.42
2018-10-16T23:13:17.261Z,96.83
2018-10-16T23:16:21.976Z,96.30
2018-10-16T23:19:26.461Z,96.92
2018-10-16T23:22:31.089Z,97.38
2018-10-16T23:25:35.798Z,96.68
2018-10-16T23:28:40.498Z,96.99
2018-10-16T23:31:45.241Z,96.24
2018-10-16T23:34:49.930Z,96.90
2018-10-16T23:37:54.709Z,96.61
2018-10-16T23:40:59.396Z,96.99
2018-10-16T23:44:04.144Z,97.22
2018-10-16T23:47:09.041Z,96.35
2018-10-16T23:50:13.928Z,97.11
2018-10-16T23:53:18.606Z,97.57
2018-10-16T23:56:23.204Z,97.01
2018-10-16T23:59:27.981Z,97.61
